sensor_id;sensor_type;location;lat;lon;timestamp;P1;durP1;ratioP1;P2;durP2;ratioP2
20832;SDS011;56075;51.264;7.150;2022-11-15T00:01:54;12.15;;;6.07;;
20832;SDS011;56075;51.264;7.150;2022-11-15T00:04:43;12.38;;;5.68;;
20832;SDS011;56075;51.264;7.150;2022-11-15T00:07:33;13.18;;;6.10;;
20832;SDS011;56075;51.264;7.150;2022-11-15T00:10:23;12.68;;;6.35;;
20832;SDS011;56075;51.264;7.150;2022-11-15T00:13:12;11.15;;;5.57;;
20832;SDS011;56075;51.264;7.150;2022-11-15T00:16:03;12.77;;;5.47;;
20832;SDS011;56075;51.264;7.150;2022-11-15T00:18:52;14.27;;;5.47;;
20832;SDS011;56075;51.264;7.150;2022-11-15T00:21:42;10.73;;;4.75;;
20832;SDS011;56075;51.264;7.150;2022-11-15T00:24:32;10.82;;;5.40;;
20832;SDS011;56075;51.264;7.150;2022-11-15T00:27:21;10.05;;;5.03;;
20832;SDS011;56075;51.264;7.150;2022-11-15T00:30:11;10.88;;;5.10;;
20832;SDS011;56075;51.264;7.150;2022-11-15T00:33:04;11.40;;;4.88;;
20832;SDS011;56075;51.264;7.150;2022-11-15T00:36:02;10.70;;;5.10;;
20832;SDS011;56075;51.264;7.150;2022-11-15T00:38:55;11.75;;;5.43;;
20832;SDS011;56075;51.264;7.150;2022-11-15T00:41:46;10.35;;;5.68;;
20832;SDS011;56075;51.264;7.150;2022-11-15T00:44:35;11.45;;;5.30;;
20832;SDS011;56075;51.264;7.150;2022-11-15T00:47:25;11.80;;;5.38;;
20832;SDS011;56075;51.264;7.150;2022-11-15T00:50:15;9.95;;;5.28;;
20832;SDS011;56075;51.264;7.150;2022-11-15T00:53:04;10.10;;;5.00;;
20832;SDS011;56075;51.264;7.150;2022-11-15T00:55:54;9.10;;;4.93;;
20832;SDS011;56075;51.264;7.150;2022-11-15T00:58:43;9.00;;;5.20;;
20832;SDS011;56075;51.264;7.150;2022-11-15T01:01:33;10.18;;;4.97;;
20832;SDS011;56075;51.264;7.150;2022-11-15T01:04:22;11.18;;;5.43;;
20832;SDS011;56075;51.264;7.150;2022-11-15T01:07:12;10.68;;;5.45;;
20832;SDS011;56075;51.264;7.150;2022-11-15T01:10:02;9.25;;;4.72;;
20832;SDS011;56075;51.264;7.150;2022-11-15T01:12:52;13.88;;;5.43;;
20832;SDS011;56075;51.264;7.150;2022-11-15T01:15:42;11.45;;;5.25;;
20832;SDS011;56075;51.264;7.150;2022-11-15T01:18:31;12.93;;;5.45;;
20832;SDS011;56075;51.264;7.150;2022-11-15T01:21:21;11.20;;;5.35;;
20832;SDS011;56075;51.264;7.150;2022-11-15T01:24:12;12.07;;;5.20;;
20832;SDS011;56075;51.264;7.150;2022-11-15T01:27:02;9.98;;;4.95;;
20832;SDS011;56075;51.264;7.150;2022-11-15T01:29:51;9.30;;;5.10;;
20832;SDS011;56075;51.264;7.150;2022-11-15T01:32:41;9.05;;;4.72;;
20832;SDS011;56075;51.264;7.150;2022-11-15T01:35:31;12.00;;;4.95;;
20832;SDS011;56075;51.264;7.150;2022-11-15T01:38:20;10.88;;;5.47;;
20832;SDS011;56075;51.264;7.150;2022-11-15T01:41:15;10.10;;;5.03;;
20832;SDS011;56075;51.264;7.150;2022-11-15T01:47:19;12.73;;;5.00;;
20832;SDS011;56075;51.264;7.150;2022-11-15T01:50:10;10.50;;;5.20;;
20832;SDS011;56075;51.264;7.150;2022-11-15T01:53:03;11.32;;;4.35;;
20832;SDS011;56075;51.264;7.150;2022-11-15T01:55:52;10.20;;;5.18;;
20832;SDS011;56075;51.264;7.150;2022-11-15T01:58:43;11.88;;;4.93;;
20832;SDS011;56075;51.264;7.150;2022-11-15T02:01:34;10.68;;;5.20;;
20832;SDS011;56075;51.264;7.150;2022-11-15T02:04:24;13.15;;;4.85;;
20832;SDS011;56075;51.264;7.150;2022-11-15T02:07:17;8.95;;;5.05;;
20832;SDS011;56075;51.264;7.150;2022-11-15T02:10:27;12.48;;;5.45;;
20832;SDS011;56075;51.264;7.150;2022-11-15T02:13:17;12.77;;;4.80;;
20832;SDS011;56075;51.264;7.150;2022-11-15T02:16:13;12.93;;;5.22;;
20832;SDS011;56075;51.264;7.150;2022-11-15T02:25:28;10.23;;;5.32;;
20832;SDS011;56075;51.264;7.150;2022-11-15T02:31:46;13.68;;;5.85;;
20832;SDS011;56075;51.264;7.150;2022-11-15T02:34:48;11.57;;;5.68;;
20832;SDS011;56075;51.264;7.150;2022-11-15T02:43:46;11.43;;;5.47;;
20832;SDS011;56075;51.264;7.150;2022-11-15T02:46:53;11.70;;;5.97;;
20832;SDS011;56075;51.264;7.150;2022-11-15T02:50:04;10.82;;;5.22;;
20832;SDS011;56075;51.264;7.150;2022-11-15T02:52:58;11.55;;;5.63;;
20832;SDS011;56075;51.264;7.150;2022-11-15T02:55:48;10.23;;;5.22;;
20832;SDS011;56075;51.264;7.150;2022-11-15T02:58:56;13.57;;;5.50;;
20832;SDS011;56075;51.264;7.150;2022-11-15T03:08:26;11.68;;;5.43;;
20832;SDS011;56075;51.264;7.150;2022-11-15T03:11:21;12.63;;;5.20;;
20832;SDS011;56075;51.264;7.150;2022-11-15T03:17:28;10.48;;;4.93;;
20832;SDS011;56075;51.264;7.150;2022-11-15T03:20:21;12.70;;;5.32;;
20832;SDS011;56075;51.264;7.150;2022-11-15T03:23:14;11.98;;;5.25;;
20832;SDS011;56075;51.264;7.150;2022-11-15T03:26:05;9.88;;;4.97;;
20832;SDS011;56075;51.264;7.150;2022-11-15T03:29:03;9.52;;;4.53;;
20832;SDS011;56075;51.264;7.150;2022-11-15T03:32:07;12.65;;;5.30;;
20832;SDS011;56075;51.264;7.150;2022-11-15T03:35:04;8.73;;;4.53;;
20832;SDS011;56075;51.264;7.150;2022-11-15T03:43:56;10.27;;;4.85;;
20832;SDS011;56075;51.264;7.150;2022-11-15T03:47:03;9.43;;;4.75;;
20832;SDS011;56075;51.264;7.150;2022-11-15T03:50:00;11.52;;;5.15;;
20832;SDS011;56075;51.264;7.150;2022-11-15T03:52:53;13.77;;;4.88;;
20832;SDS011;56075;51.264;7.150;2022-11-15T03:55:43;10.25;;;4.50;;
20832;SDS011;56075;51.264;7.150;2022-11-15T03:58:33;8.80;;;4.25;;
20832;SDS011;56075;51.264;7.150;2022-11-15T04:01:23;11.43;;;4.82;;
20832;SDS011;56075;51.264;7.150;2022-11-15T04:04:12;10.10;;;4.80;;
20832;SDS011;56075;51.264;7.150;2022-11-15T04:07:02;10.05;;;4.90;;
20832;SDS011;56075;51.264;7.150;2022-11-15T04:09:51;9.75;;;4.57;;
20832;SDS011;56075;51.264;7.150;2022-11-15T04:12:54;7.78;;;4.65;;
20832;SDS011;56075;51.264;7.150;2022-11-15T04:15:43;9.70;;;4.78;;
20832;SDS011;56075;51.264;7.150;2022-11-15T04:18:33;8.52;;;4.70;;
20832;SDS011;56075;51.264;7.150;2022-11-15T04:21:22;9.52;;;4.55;;
20832;SDS011;56075;51.264;7.150;2022-11-15T04:24:31;9.45;;;4.70;;
20832;SDS011;56075;51.264;7.150;2022-11-15T04:27:20;9.35;;;4.55;;
20832;SDS011;56075;51.264;7.150;2022-11-15T04:30:10;9.13;;;4.53;;
20832;SDS011;56075;51.264;7.150;2022-11-15T04:32:59;10.27;;;4.80;;
20832;SDS011;56075;51.264;7.150;2022-11-15T04:35:49;10.13;;;5.10;;
20832;SDS011;56075;51.264;7.150;2022-11-15T04:38:57;8.98;;;4.85;;
20832;SDS011;56075;51.264;7.150;2022-11-15T04:41:47;9.65;;;5.43;;
20832;SDS011;56075;51.264;7.150;2022-11-15T04:44:37;8.93;;;5.28;;
20832;SDS011;56075;51.264;7.150;2022-11-15T04:47:27;13.15;;;5.00;;
20832;SDS011;56075;51.264;7.150;2022-11-15T04:50:18;12.70;;;5.82;;
20832;SDS011;56075;51.264;7.150;2022-11-15T04:53:08;8.93;;;5.47;;
20832;SDS011;56075;51.264;7.150;2022-11-15T04:55:57;10.63;;;5.30;;
20832;SDS011;56075;51.264;7.150;2022-11-15T04:58:50;11.30;;;5.28;;
20832;SDS011;56075;51.264;7.150;2022-11-15T05:01:39;11.48;;;5.47;;
20832;SDS011;56075;51.264;7.150;2022-11-15T05:04:29;14.57;;;5.70;;
20832;SDS011;56075;51.264;7.150;2022-11-15T05:07:18;12.80;;;5.63;;
20832;SDS011;56075;51.264;7.150;2022-11-15T05:10:08;8.25;;;5.47;;
20832;SDS011;56075;51.264;7.150;2022-11-15T05:12:58;15.32;;;5.40;;
20832;SDS011;56075;51.264;7.150;2022-11-15T05:15:48;10.27;;;5.43;;
20832;SDS011;56075;51.264;7.150;2022-11-15T05:18:37;11.27;;;5.60;;
20832;SDS011;56075;51.264;7.150;2022-11-15T05:21:29;9.13;;;5.28;;
20832;SDS011;56075;51.264;7.150;2022-11-15T05:24:19;9.38;;;5.07;;
20832;SDS011;56075;51.264;7.150;2022-11-15T05:27:08;9.00;;;5.30;;
20832;SDS011;56075;51.264;7.150;2022-11-15T05:29:58;10.55;;;5.20;;
20832;SDS011;56075;51.264;7.150;2022-11-15T05:32:47;7.57;;;4.75;;
20832;SDS011;56075;51.264;7.150;2022-11-15T05:35:40;10.18;;;5.28;;
20832;SDS011;56075;51.264;7.150;2022-11-15T05:38:34;8.48;;;5.00;;
20832;SDS011;56075;51.264;7.150;2022-11-15T05:41:29;7.65;;;4.80;;
20832;SDS011;56075;51.264;7.150;2022-11-15T05:44:22;7.35;;;4.82;;
20832;SDS011;56075;51.264;7.150;2022-11-15T05:47:21;7.35;;;4.38;;
20832;SDS011;56075;51.264;7.150;2022-11-15T05:50:15;7.80;;;4.03;;
20832;SDS011;56075;51.264;7.150;2022-11-15T05:53:07;7.30;;;4.00;;
20832;SDS011;56075;51.264;7.150;2022-11-15T05:55:57;8.07;;;4.20;;
20832;SDS011;56075;51.264;7.150;2022-11-15T05:58:47;7.43;;;4.20;;
20832;SDS011;56075;51.264;7.150;2022-11-15T06:01:37;9.02;;;4.30;;
20832;SDS011;56075;51.264;7.150;2022-11-15T06:04:27;6.53;;;3.63;;
20832;SDS011;56075;51.264;7.150;2022-11-15T06:07:17;7.25;;;3.80;;
20832;SDS011;56075;51.264;7.150;2022-11-15T06:10:06;5.90;;;3.13;;
20832;SDS011;56075;51.264;7.150;2022-11-15T06:13:00;5.70;;;3.20;;
20832;SDS011;56075;51.264;7.150;2022-11-15T06:15:50;5.65;;;3.13;;
20832;SDS011;56075;51.264;7.150;2022-11-15T06:18:43;5.28;;;3.33;;
20832;SDS011;56075;51.264;7.150;2022-11-15T06:21:33;5.90;;;3.50;;
20832;SDS011;56075;51.264;7.150;2022-11-15T06:24:22;6.90;;;4.00;;
20832;SDS011;56075;51.264;7.150;2022-11-15T06:27:12;5.70;;;3.13;;
20832;SDS011;56075;51.264;7.150;2022-11-15T06:30:01;5.78;;;2.92;;
20832;SDS011;56075;51.264;7.150;2022-11-15T06:32:52;6.15;;;3.30;;
20832;SDS011;56075;51.264;7.150;2022-11-15T06:35:49;4.80;;;3.08;;
20832;SDS011;56075;51.264;7.150;2022-11-15T06:38:38;5.43;;;3.25;;
20832;SDS011;56075;51.264;7.150;2022-11-15T06:41:28;5.25;;;2.97;;
20832;SDS011;56075;51.264;7.150;2022-11-15T06:44:18;4.70;;;2.78;;
20832;SDS011;56075;51.264;7.150;2022-11-15T06:47:07;7.28;;;2.70;;
20832;SDS011;56075;51.264;7.150;2022-11-15T06:49:56;4.55;;;2.85;;
20832;SDS011;56075;51.264;7.150;2022-11-15T06:52:46;4.78;;;2.55;;
20832;SDS011;56075;51.264;7.150;2022-11-15T06:55:36;4.43;;;2.22;;
20832;SDS011;56075;51.264;7.150;2022-11-15T06:58:25;5.07;;;2.53;;
20832;SDS011;56075;51.264;7.150;2022-11-15T07:01:15;3.65;;;2.30;;
20832;SDS011;56075;51.264;7.150;2022-11-15T07:04:05;4.90;;;2.42;;
20832;SDS011;56075;51.264;7.150;2022-11-15T07:06:54;5.13;;;2.50;;
20832;SDS011;56075;51.264;7.150;2022-11-15T07:09:44;3.28;;;2.10;;
20832;SDS011;56075;51.264;7.150;2022-11-15T07:12:33;4.20;;;2.45;;
20832;SDS011;56075;51.264;7.150;2022-11-15T07:15:24;5.45;;;2.40;;
20832;SDS011;56075;51.264;7.150;2022-11-15T07:18:14;3.67;;;2.10;;
20832;SDS011;56075;51.264;7.150;2022-11-15T07:21:04;3.33;;;2.15;;
20832;SDS011;56075;51.264;7.150;2022-11-15T07:23:55;5.45;;;2.33;;
20832;SDS011;56075;51.264;7.150;2022-11-15T07:26:45;3.88;;;2.00;;
20832;SDS011;56075;51.264;7.150;2022-11-15T07:29:34;3.60;;;2.17;;
20832;SDS011;56075;51.264;7.150;2022-11-15T07:32:23;5.38;;;2.13;;
20832;SDS011;56075;51.264;7.150;2022-11-15T07:35:13;5.50;;;1.95;;
20832;SDS011;56075;51.264;7.150;2022-11-15T07:38:03;3.17;;;1.75;;
20832;SDS011;56075;51.264;7.150;2022-11-15T07:40:59;3.03;;;1.75;;
20832;SDS011;56075;51.264;7.150;2022-11-15T07:43:51;3.40;;;1.90;;
20832;SDS011;56075;51.264;7.150;2022-11-15T07:46:41;5.30;;;2.20;;
20832;SDS011;56075;51.264;7.150;2022-11-15T07:49:31;5.10;;;2.05;;
20832;SDS011;56075;51.264;7.150;2022-11-15T07:52:20;5.03;;;2.40;;
20832;SDS011;56075;51.264;7.150;2022-11-15T07:55:10;4.78;;;2.17;;
20832;SDS011;56075;51.264;7.150;2022-11-15T07:58:01;5.10;;;1.90;;
20832;SDS011;56075;51.264;7.150;2022-11-15T08:00:51;6.25;;;2.33;;
20832;SDS011;56075;51.264;7.150;2022-11-15T08:03:41;4.97;;;2.20;;
20832;SDS011;56075;51.264;7.150;2022-11-15T08:06:31;5.65;;;1.98;;
20832;SDS011;56075;51.264;7.150;2022-11-15T08:09:20;3.83;;;2.03;;
20832;SDS011;56075;51.264;7.150;2022-11-15T08:12:10;3.53;;;1.67;;
20832;SDS011;56075;51.264;7.150;2022-11-15T08:14:59;3.35;;;1.80;;
20832;SDS011;56075;51.264;7.150;2022-11-15T08:17:53;5.22;;;1.90;;
20832;SDS011;56075;51.264;7.150;2022-11-15T08:20:44;3.20;;;1.60;;
20832;SDS011;56075;51.264;7.150;2022-11-15T08:23:34;3.30;;;1.60;;
20832;SDS011;56075;51.264;7.150;2022-11-15T08:26:24;2.63;;;1.77;;
20832;SDS011;56075;51.264;7.150;2022-11-15T08:29:17;5.90;;;1.90;;
20832;SDS011;56075;51.264;7.150;2022-11-15T08:32:07;3.35;;;1.52;;
20832;SDS011;56075;51.264;7.150;2022-11-15T08:34:58;3.65;;;1.65;;
20832;SDS011;56075;51.264;7.150;2022-11-15T08:37:47;3.55;;;1.63;;
20832;SDS011;56075;51.264;7.150;2022-11-15T08:40:37;3.05;;;1.63;;
20832;SDS011;56075;51.264;7.150;2022-11-15T08:43:27;3.15;;;1.77;;
20832;SDS011;56075;51.264;7.150;2022-11-15T08:46:16;3.60;;;1.80;;
20832;SDS011;56075;51.264;7.150;2022-11-15T08:49:07;2.47;;;1.50;;
20832;SDS011;56075;51.264;7.150;2022-11-15T08:51:57;4.32;;;1.75;;
20832;SDS011;56075;51.264;7.150;2022-11-15T08:54:47;4.72;;;1.50;;
20832;SDS011;56075;51.264;7.150;2022-11-15T08:57:36;2.38;;;1.35;;
20832;SDS011;56075;51.264;7.150;2022-11-15T09:00:26;2.63;;;1.60;;
20832;SDS011;56075;51.264;7.150;2022-11-15T09:03:15;2.70;;;1.48;;
20832;SDS011;56075;51.264;7.150;2022-11-15T09:06:05;7.30;;;1.55;;
20832;SDS011;56075;51.264;7.150;2022-11-15T09:08:54;3.50;;;1.10;;
20832;SDS011;56075;51.264;7.150;2022-11-15T09:11:45;2.33;;;1.20;;
20832;SDS011;56075;51.264;7.150;2022-11-15T09:14:35;4.82;;;1.58;;
20832;SDS011;56075;51.264;7.150;2022-11-15T09:17:24;2.45;;;1.30;;
20832;SDS011;56075;51.264;7.150;2022-11-15T09:20:14;3.55;;;1.17;;
20832;SDS011;56075;51.264;7.150;2022-11-15T09:23:04;3.05;;;1.50;;
20832;SDS011;56075;51.264;7.150;2022-11-15T09:25:58;3.30;;;1.30;;
20832;SDS011;56075;51.264;7.150;2022-11-15T09:28:52;2.83;;;1.20;;
20832;SDS011;56075;51.264;7.150;2022-11-15T09:31:42;3.90;;;1.00;;
20832;SDS011;56075;51.264;7.150;2022-11-15T09:34:32;1.52;;;0.95;;
20832;SDS011;56075;51.264;7.150;2022-11-15T09:37:22;2.33;;;0.85;;
20832;SDS011;56075;51.264;7.150;2022-11-15T09:40:12;1.92;;;0.80;;
20832;SDS011;56075;51.264;7.150;2022-11-15T09:49:18;4.05;;;0.82;;
20832;SDS011;56075;51.264;7.150;2022-11-15T09:52:08;4.03;;;0.90;;
20832;SDS011;56075;51.264;7.150;2022-11-15T09:54:47;1.65;;;0.82;;
20832;SDS011;56075;51.264;7.150;2022-11-15T10:02:51;2.25;;;1.10;;
20832;SDS011;56075;51.264;7.150;2022-11-15T10:05:37;1.88;;;0.90;;
20832;SDS011;56075;51.264;7.150;2022-11-15T10:11:01;1.80;;;1.00;;
20832;SDS011;56075;51.264;7.150;2022-11-15T10:13:46;2.30;;;0.80;;
20832;SDS011;56075;51.264;7.150;2022-11-15T10:16:26;2.45;;;0.80;;
20832;SDS011;56075;51.264;7.150;2022-11-15T10:19:26;3.17;;;0.90;;
20832;SDS011;56075;51.264;7.150;2022-11-15T10:25:24;2.60;;;0.80;;
20832;SDS011;56075;51.264;7.150;2022-11-15T10:30:47;2.28;;;0.88;;
20832;SDS011;56075;51.264;7.150;2022-11-15T10:46:40;2.40;;;0.98;;
20832;SDS011;56075;51.264;7.150;2022-11-15T10:49:13;1.52;;;0.90;;
20832;SDS011;56075;51.264;7.150;2022-11-15T10:54:27;2.13;;;0.90;;
20832;SDS011;56075;51.264;7.150;2022-11-15T10:57:19;4.60;;;0.80;;
20832;SDS011;56075;51.264;7.150;2022-11-15T10:59:54;1.05;;;0.73;;
20832;SDS011;56075;51.264;7.150;2022-11-15T11:02:37;1.92;;;0.80;;
20832;SDS011;56075;51.264;7.150;2022-11-15T11:08:00;2.67;;;0.80;;
20832;SDS011;56075;51.264;7.150;2022-11-15T11:10:33;2.88;;;0.77;;
20832;SDS011;56075;51.264;7.150;2022-11-15T11:13:15;3.70;;;0.90;;
20832;SDS011;56075;51.264;7.150;2022-11-15T11:24:43;1.90;;;0.85;;
20832;SDS011;56075;51.264;7.150;2022-11-15T11:30:53;1.08;;;0.80;;
20832;SDS011;56075;51.264;7.150;2022-11-15T11:36:27;3.60;;;0.82;;
20832;SDS011;56075;51.264;7.150;2022-11-15T11:39:17;2.90;;;0.70;;
20832;SDS011;56075;51.264;7.150;2022-11-15T11:44:53;3.45;;;0.60;;
20832;SDS011;56075;51.264;7.150;2022-11-15T11:50:44;4.15;;;0.77;;
20832;SDS011;56075;51.264;7.150;2022-11-15T11:53:27;1.33;;;0.45;;
20832;SDS011;56075;51.264;7.150;2022-11-15T11:56:28;1.88;;;0.70;;
20832;SDS011;56075;51.264;7.150;2022-11-15T11:59:07;2.92;;;0.68;;
20832;SDS011;56075;51.264;7.150;2022-11-15T12:01:42;3.28;;;0.70;;
20832;SDS011;56075;51.264;7.150;2022-11-15T12:04:17;1.45;;;0.60;;
20832;SDS011;56075;51.264;7.150;2022-11-15T12:07:10;4.60;;;0.90;;
20832;SDS011;56075;51.264;7.150;2022-11-15T12:10:20;1.73;;;0.90;;
20832;SDS011;56075;51.264;7.150;2022-11-15T12:15:58;2.88;;;0.80;;
20832;SDS011;56075;51.264;7.150;2022-11-15T12:18:36;2.00;;;0.73;;
20832;SDS011;56075;51.264;7.150;2022-11-15T12:21:13;2.00;;;0.90;;
20832;SDS011;56075;51.264;7.150;2022-11-15T12:24:08;1.63;;;0.80;;
20832;SDS011;56075;51.264;7.150;2022-11-15T12:26:52;1.42;;;0.60;;
20832;SDS011;56075;51.264;7.150;2022-11-15T12:32:25;3.97;;;0.85;;
20832;SDS011;56075;51.264;7.150;2022-11-15T12:34:59;3.72;;;0.75;;
20832;SDS011;56075;51.264;7.150;2022-11-15T12:42:59;3.75;;;0.70;;
20832;SDS011;56075;51.264;7.150;2022-11-15T12:45:43;3.17;;;0.77;;
20832;SDS011;56075;51.264;7.150;2022-11-15T12:59:38;1.75;;;0.70;;
20832;SDS011;56075;51.264;7.150;2022-11-15T13:02:15;3.85;;;0.70;;
20832;SDS011;56075;51.264;7.150;2022-11-15T13:08:06;2.45;;;0.50;;
20832;SDS011;56075;51.264;7.150;2022-11-15T13:11:33;4.80;;;0.60;;
20832;SDS011;56075;51.264;7.150;2022-11-15T13:17:25;5.43;;;0.73;;
20832;SDS011;56075;51.264;7.150;2022-11-15T13:28:37;2.38;;;0.70;;
20832;SDS011;56075;51.264;7.150;2022-11-15T13:33:55;4.60;;;0.77;;
20832;SDS011;56075;51.264;7.150;2022-11-15T13:36:35;2.17;;;0.60;;
20832;SDS011;56075;51.264;7.150;2022-11-15T13:39:26;1.15;;;0.52;;
20832;SDS011;56075;51.264;7.150;2022-11-15T13:42:15;4.97;;;0.80;;
20832;SDS011;56075;51.264;7.150;2022-11-15T13:45:12;1.90;;;0.63;;
20832;SDS011;56075;51.264;7.150;2022-11-15T13:47:55;2.42;;;0.70;;
20832;SDS011;56075;51.264;7.150;2022-11-15T13:51:01;1.88;;;0.75;;
20832;SDS011;56075;51.264;7.150;2022-11-15T13:53:36;2.88;;;0.80;;
20832;SDS011;56075;51.264;7.150;2022-11-15T13:56:11;2.63;;;0.55;;
20832;SDS011;56075;51.264;7.150;2022-11-15T13:58:44;3.15;;;0.80;;
20832;SDS011;56075;51.264;7.150;2022-11-15T14:01:20;1.10;;;0.70;;
20832;SDS011;56075;51.264;7.150;2022-11-15T14:03:55;1.95;;;0.75;;
20832;SDS011;56075;51.264;7.150;2022-11-15T14:06:29;4.13;;;0.88;;
20832;SDS011;56075;51.264;7.150;2022-11-15T14:11:52;2.45;;;1.10;;
20832;SDS011;56075;51.264;7.150;2022-11-15T14:14:25;4.80;;;1.70;;
20832;SDS011;56075;51.264;7.150;2022-11-15T14:17:19;4.53;;;1.55;;
20832;SDS011;56075;51.264;7.150;2022-11-15T14:20:00;1.95;;;1.00;;
20832;SDS011;56075;51.264;7.150;2022-11-15T14:22:36;3.63;;;1.30;;
20832;SDS011;56075;51.264;7.150;2022-11-15T14:25:22;4.90;;;1.42;;
20832;SDS011;56075;51.264;7.150;2022-11-15T14:30:59;3.03;;;1.25;;
20832;SDS011;56075;51.264;7.150;2022-11-15T14:33:37;3.55;;;1.10;;
20832;SDS011;56075;51.264;7.150;2022-11-15T14:36:26;3.08;;;1.13;;
20832;SDS011;56075;51.264;7.150;2022-11-15T14:39:10;2.83;;;1.40;;
20832;SDS011;56075;51.264;7.150;2022-11-15T14:41:49;2.47;;;1.23;;
20832;SDS011;56075;51.264;7.150;2022-11-15T14:44:27;4.25;;;1.05;;
20832;SDS011;56075;51.264;7.150;2022-11-15T14:47:01;3.08;;;1.30;;
20832;SDS011;56075;51.264;7.150;2022-11-15T14:49:36;1.70;;;1.20;;
20832;SDS011;56075;51.264;7.150;2022-11-15T14:55:00;4.28;;;1.27;;
20832;SDS011;56075;51.264;7.150;2022-11-15T14:57:41;3.08;;;1.20;;
20832;SDS011;56075;51.264;7.150;2022-11-15T15:00:16;5.43;;;1.63;;
20832;SDS011;56075;51.264;7.150;2022-11-15T15:02:52;1.83;;;1.10;;
20832;SDS011;56075;51.264;7.150;2022-11-15T15:05:50;2.50;;;1.02;;
20832;SDS011;56075;51.264;7.150;2022-11-15T15:08:24;2.95;;;1.48;;
20832;SDS011;56075;51.264;7.150;2022-11-15T15:11:21;2.97;;;1.20;;
20832;SDS011;56075;51.264;7.150;2022-11-15T15:13:59;2.75;;;0.95;;
20832;SDS011;56075;51.264;7.150;2022-11-15T15:16:32;3.13;;;1.27;;
20832;SDS011;56075;51.264;7.150;2022-11-15T15:19:25;5.50;;;1.52;;
20832;SDS011;56075;51.264;7.150;2022-11-15T15:22:10;2.47;;;1.30;;
20832;SDS011;56075;51.264;7.150;2022-11-15T15:24:52;2.75;;;1.25;;
20832;SDS011;56075;51.264;7.150;2022-11-15T15:27:29;3.53;;;1.50;;
20832;SDS011;56075;51.264;7.150;2022-11-15T15:30:00;3.22;;;1.40;;
20832;SDS011;56075;51.264;7.150;2022-11-15T15:32:32;5.20;;;1.70;;
20832;SDS011;56075;51.264;7.150;2022-11-15T15:35:04;4.20;;;1.20;;
20832;SDS011;56075;51.264;7.150;2022-11-15T15:37:41;4.47;;;1.20;;
20832;SDS011;56075;51.264;7.150;2022-11-15T15:40:16;4.57;;;1.40;;
20832;SDS011;56075;51.264;7.150;2022-11-15T15:42:49;3.67;;;1.10;;
20832;SDS011;56075;51.264;7.150;2022-11-15T15:45:21;2.25;;;1.23;;
20832;SDS011;56075;51.264;7.150;2022-11-15T15:47:52;3.78;;;1.48;;
20832;SDS011;56075;51.264;7.150;2022-11-15T15:50:31;2.97;;;1.40;;
20832;SDS011;56075;51.264;7.150;2022-11-15T15:53:04;3.45;;;1.23;;
20832;SDS011;56075;51.264;7.150;2022-11-15T15:55:36;3.50;;;1.25;;
20832;SDS011;56075;51.264;7.150;2022-11-15T15:58:08;2.85;;;1.50;;
20832;SDS011;56075;51.264;7.150;2022-11-15T16:00:41;3.80;;;1.40;;
20832;SDS011;56075;51.264;7.150;2022-11-15T16:03:16;2.50;;;1.35;;
20832;SDS011;56075;51.264;7.150;2022-11-15T16:05:47;3.33;;;1.40;;
20832;SDS011;56075;51.264;7.150;2022-11-15T16:08:45;3.47;;;1.40;;
20832;SDS011;56075;51.264;7.150;2022-11-15T16:11:15;4.40;;;1.38;;
20832;SDS011;56075;51.264;7.150;2022-11-15T16:13:47;3.47;;;1.88;;
20832;SDS011;56075;51.264;7.150;2022-11-15T16:16:18;3.78;;;1.48;;
20832;SDS011;56075;51.264;7.150;2022-11-15T16:18:52;5.82;;;1.60;;
20832;SDS011;56075;51.264;7.150;2022-11-15T16:21:24;2.28;;;1.40;;
20832;SDS011;56075;51.264;7.150;2022-11-15T16:23:55;3.35;;;1.30;;
20832;SDS011;56075;51.264;7.150;2022-11-15T16:26:27;2.53;;;1.40;;
20832;SDS011;56075;51.264;7.150;2022-11-15T16:29:00;2.35;;;1.38;;
20832;SDS011;56075;51.264;7.150;2022-11-15T16:31:31;5.80;;;1.63;;
20832;SDS011;56075;51.264;7.150;2022-11-15T16:34:02;3.53;;;1.90;;
20832;SDS011;56075;51.264;7.150;2022-11-15T16:36:34;2.63;;;1.35;;
20832;SDS011;56075;51.264;7.150;2022-11-15T16:39:15;3.38;;;1.75;;
20832;SDS011;56075;51.264;7.150;2022-11-15T16:42:01;4.10;;;1.38;;
20832;SDS011;56075;51.264;7.150;2022-11-15T16:44:41;3.42;;;1.52;;
20832;SDS011;56075;51.264;7.150;2022-11-15T16:47:25;3.20;;;1.60;;
20832;SDS011;56075;51.264;7.150;2022-11-15T16:50:02;2.35;;;1.33;;
20832;SDS011;56075;51.264;7.150;2022-11-15T16:52:39;3.92;;;1.40;;
20832;SDS011;56075;51.264;7.150;2022-11-15T16:55:12;4.35;;;1.45;;
20832;SDS011;56075;51.264;7.150;2022-11-15T16:57:59;2.80;;;1.20;;
20832;SDS011;56075;51.264;7.150;2022-11-15T17:00:41;4.30;;;1.70;;
20832;SDS011;56075;51.264;7.150;2022-11-15T17:03:16;3.90;;;1.42;;
20832;SDS011;56075;51.264;7.150;2022-11-15T17:05:48;3.35;;;1.48;;
20832;SDS011;56075;51.264;7.150;2022-11-15T17:08:26;3.08;;;1.42;;
20832;SDS011;56075;51.264;7.150;2022-11-15T17:11:04;3.30;;;1.73;;
20832;SDS011;56075;51.264;7.150;2022-11-15T17:13:36;2.95;;;1.60;;
20832;SDS011;56075;51.264;7.150;2022-11-15T17:16:08;2.80;;;1.42;;
20832;SDS011;56075;51.264;7.150;2022-11-15T17:18:49;4.82;;;1.60;;
20832;SDS011;56075;51.264;7.150;2022-11-15T17:21:24;2.10;;;1.17;;
20832;SDS011;56075;51.264;7.150;2022-11-15T17:23:58;4.07;;;1.67;;
20832;SDS011;56075;51.264;7.150;2022-11-15T17:26:33;3.33;;;1.40;;
20832;SDS011;56075;51.264;7.150;2022-11-15T17:29:04;2.47;;;1.20;;
20832;SDS011;56075;51.264;7.150;2022-11-15T17:31:38;4.57;;;1.30;;
20832;SDS011;56075;51.264;7.150;2022-11-15T17:34:10;2.10;;;1.20;;
20832;SDS011;56075;51.264;7.150;2022-11-15T17:36:41;3.33;;;1.73;;
20832;SDS011;56075;51.264;7.150;2022-11-15T17:39:13;3.35;;;1.35;;
20832;SDS011;56075;51.264;7.150;2022-11-15T17:41:44;3.97;;;1.63;;
20832;SDS011;56075;51.264;7.150;2022-11-15T17:44:16;3.28;;;1.63;;
20832;SDS011;56075;51.264;7.150;2022-11-15T17:46:48;2.17;;;1.10;;
20832;SDS011;56075;51.264;7.150;2022-11-15T17:49:22;2.38;;;1.25;;
20832;SDS011;56075;51.264;7.150;2022-11-15T17:52:07;2.38;;;1.63;;
20832;SDS011;56075;51.264;7.150;2022-11-15T17:54:40;2.80;;;1.60;;
20832;SDS011;56075;51.264;7.150;2022-11-15T17:57:11;4.40;;;1.63;;
20832;SDS011;56075;51.264;7.150;2022-11-15T17:59:43;2.97;;;1.60;;
20832;SDS011;56075;51.264;7.150;2022-11-15T18:02:14;4.13;;;1.52;;
20832;SDS011;56075;51.264;7.150;2022-11-15T18:04:46;3.70;;;1.55;;
20832;SDS011;56075;51.264;7.150;2022-11-15T18:07:17;4.78;;;1.50;;
20832;SDS011;56075;51.264;7.150;2022-11-15T18:09:57;2.50;;;1.60;;
20832;SDS011;56075;51.264;7.150;2022-11-15T18:12:34;3.42;;;1.75;;
20832;SDS011;56075;51.264;7.150;2022-11-15T18:15:09;4.78;;;1.67;;
20832;SDS011;56075;51.264;7.150;2022-11-15T18:17:53;3.05;;;1.55;;
20832;SDS011;56075;51.264;7.150;2022-11-15T18:20:32;3.45;;;1.58;;
20832;SDS011;56075;51.264;7.150;2022-11-15T18:23:03;5.18;;;2.80;;
20832;SDS011;56075;51.264;7.150;2022-11-15T18:25:40;5.85;;;2.00;;
20832;SDS011;56075;51.264;7.150;2022-11-15T18:28:32;3.28;;;1.90;;
20832;SDS011;56075;51.264;7.150;2022-11-15T18:31:12;4.35;;;1.88;;
20832;SDS011;56075;51.264;7.150;2022-11-15T18:34:07;5.10;;;2.03;;
20832;SDS011;56075;51.264;7.150;2022-11-15T18:36:39;4.50;;;1.80;;
20832;SDS011;56075;51.264;7.150;2022-11-15T18:39:12;3.10;;;1.73;;
20832;SDS011;56075;51.264;7.150;2022-11-15T18:41:46;3.58;;;1.88;;
20832;SDS011;56075;51.264;7.150;2022-11-15T18:44:18;3.80;;;1.80;;
20832;SDS011;56075;51.264;7.150;2022-11-15T18:46:57;4.18;;;2.47;;
20832;SDS011;56075;51.264;7.150;2022-11-15T18:49:29;4.35;;;2.30;;
20832;SDS011;56075;51.264;7.150;2022-11-15T18:52:06;4.50;;;2.08;;
20832;SDS011;56075;51.264;7.150;2022-11-15T18:54:49;4.07;;;2.20;;
20832;SDS011;56075;51.264;7.150;2022-11-15T18:57:20;2.90;;;1.85;;
20832;SDS011;56075;51.264;7.150;2022-11-15T18:59:52;4.30;;;2.45;;